Time;durP1;ratioP1;P1;durP2;ratioP2;P2;SDS_P1;SDS_P2;PMS_P1;PMS_P2;Temp;Humidity;BMP_temperature;BMP_pressure;BME280_temperature;BME280_humidity;BME280_pressure;Samples;Min_cycle;Max_cycle;Signal;HPM_P1;HPM_P2
2024/04/03 00:02:24;;;;;;;2.50;1.47;;;15.50;45.40;;;;;;5024388;28;20243;-57
2024/04/03 00:04:50;;;;;;;2.40;1.40;;;15.30;46.20;;;;;;5022522;28;20186;-57
2024/04/03 00:07:15;;;;;;;3.70;1.70;;;15.50;45.90;;;;;;5026380;28;20201;-56
2024/04/03 00:09:41;;;;;;;3.57;1.20;;;15.70;45.10;;;;;;5020174;28;20883;-58
2024/04/03 00:12:06;;;;;;;3.27;1.63;;;16.00;44.90;;;;;;5026024;28;20184;-57
2024/04/03 00:14:32;;;;;;;1.87;1.20;;;16.10;44.60;;;;;;5020839;28;20181;-58
2024/04/03 00:16:58;;;;;;;1.77;1.20;;;16.20;43.50;;;;;;5023743;28;20212;-56
2024/04/03 00:19:24;;;;;;;4.13;1.60;;;16.30;43.50;;;;;;5018916;28;20748;-58
2024/04/03 00:21:50;;;;;;;3.00;1.70;;;16.20;44.20;;;;;;5022064;28;20260;-58
2024/04/03 00:24:16;;;;;;;2.53;1.40;;;16.30;44.10;;;;;;5026319;28;20482;-58
2024/04/03 00:26:42;;;;;;;1.93;1.50;;;16.30;43.80;;;;;;5019367;28;20441;-57
2024/04/03 00:29:08;;;;;;;2.23;1.70;;;16.30;43.80;;;;;;5024055;28;20451;-59
2024/04/03 00:31:34;;;;;;;4.57;3.63;;;16.30;43.90;;;;;;5024727;28;20185;-57
2024/04/03 00:33:59;;;;;;;4.43;1.87;;;16.20;44.40;;;;;;5022824;28;20935;-58
2024/04/03 00:36:25;;;;;;;2.50;1.23;;;16.30;44.30;;;;;;5021693;28;20178;-58
2024/04/03 00:38:51;;;;;;;3.40;1.40;;;16.40;44.10;;;;;;5019478;28;20276;-57
2024/04/03 00:41:16;;;;;;;2.50;1.80;;;16.40;44.20;;;;;;5026218;28;20190;-58
2024/04/03 00:43:42;;;;;;;1.40;1.30;;;16.50;44.00;;;;;;5020709;28;20647;-58
2024/04/03 00:46:08;;;;;;;1.70;1.33;;;16.50;44.10;;;;;;5024717;28;20193;-56
2024/04/03 00:48:33;;;;;;;2.10;1.10;;;16.30;44.90;;;;;;5019553;28;20239;-55
2024/04/03 00:51:01;;;;;;;3.10;1.43;;;16.30;44.90;;;;;;5022764;28;20460;-58
2024/04/03 00:53:28;;;;;;;3.80;1.50;;;16.30;44.70;;;;;;5025392;28;20253;-57
2024/04/03 00:55:54;;;;;;;1.83;1.40;;;16.30;44.30;;;;;;5020521;28;20440;-59
2024/04/03 00:58:20;;;;;;;1.90;1.30;;;16.40;44.40;;;;;;5024664;28;20444;-59
2024/04/03 01:00:46;;;;;;;2.30;1.20;;;16.40;44.40;;;;;;5017757;28;20980;-59
2024/04/03 01:03:11;;;;;;;2.20;1.50;;;16.40;44.50;;;;;;5024184;28;20174;-58
2024/04/03 01:05:37;;;;;;;2.37;1.20;;;15.90;45.60;;;;;;5023174;28;20175;-59
2024/04/03 01:08:03;;;;;;;4.23;1.47;;;15.80;45.90;;;;;;5018063;28;20205;-56
2024/04/03 01:10:29;;;;;;;5.17;1.40;;;15.40;46.30;;;;;;5022425;28;20189;-58
2024/04/03 01:12:56;;;;;;;2.83;1.60;;;15.40;47.00;;;;;;5022579;28;20182;-58
2024/04/03 01:15:23;;;;;;;4.90;1.70;;;15.30;47.00;;;;;;5024803;28;20184;-59
2024/04/03 01:17:49;;;;;;;1.87;1.17;;;15.20;47.40;;;;;;5020082;28;20451;-59
2024/04/03 01:20:16;;;;;;;3.90;1.50;;;15.10;47.30;;;;;;5023512;28;20467;-59
2024/04/03 01:22:42;;;;;;;3.23;1.27;;;14.80;47.90;;;;;;5018917;28;20182;-58
2024/04/03 01:25:07;;;;;;;2.47;1.30;;;14.90;48.10;;;;;;5023008;28;20447;-57
2024/04/03 01:27:33;;;;;;;2.60;1.40;;;15.10;47.70;;;;;;5017199;28;20436;-56
2024/04/03 01:29:59;;;;;;;1.60;1.30;;;15.20;47.40;;;;;;5021224;28;20189;-59
2024/04/03 01:32:24;;;;;;;3.30;1.40;;;15.40;46.70;;;;;;5024753;28;20205;-58
2024/04/03 01:34:51;;;;;;;3.10;1.40;;;15.40;46.40;;;;;;5019394;28;20661;-58
2024/04/03 01:37:20;;;;;;;2.43;1.63;;;15.50;46.40;;;;;;5022070;28;20205;-58
2024/04/03 01:39:49;;;;;;;3.43;1.50;;;15.60;46.30;;;;;;5016325;28;20484;-58
2024/04/03 01:42:14;;;;;;;2.67;1.47;;;15.60;46.20;;;;;;5022812;28;20856;-58
2024/04/03 01:44:40;;;;;;;1.77;1.23;;;15.60;46.20;;;;;;5022967;28;20511;-58
2024/04/03 01:47:06;;;;;;;2.40;1.40;;;15.70;46.00;;;;;;5021056;28;20218;-57
2024/04/03 01:49:32;;;;;;;3.10;1.43;;;15.70;45.80;;;;;;5021114;28;20186;-57
2024/04/03 01:51:57;;;;;;;2.10;1.33;;;15.70;45.60;;;;;;5019644;28;22029;-58
2024/04/03 01:54:24;;;;;;;4.30;1.80;;;15.60;46.10;;;;;;5020943;28;20503;-57
2024/04/03 01:56:49;;;;;;;4.43;1.30;;;15.50;46.30;;;;;;5020320;28;20284;-56
2024/04/03 01:59:15;;;;;;;3.10;1.60;;;15.50;46.40;;;;;;5022313;28;20492;-59
2024/04/03 02:01:41;;;;;;;2.03;1.20;;;15.60;46.40;;;;;;5018747;28;20200;-58
2024/04/03 02:04:06;;;;;;;1.60;1.20;;;15.60;46.10;;;;;;5022346;28;20177;-59
2024/04/03 02:06:32;;;;;;;2.10;1.70;;;15.40;46.10;;;;;;5023537;28;20251;-57
2024/04/03 02:08:57;;;;;;;3.53;1.53;;;15.40;46.90;;;;;;5019121;28;20200;-56
2024/04/03 02:11:23;;;;;;;2.17;1.20;;;15.50;47.00;;;;;;5023843;28;20255;-57
2024/04/03 02:13:48;;;;;;;2.50;1.50;;;15.50;46.80;;;;;;5017781;28;20240;-57
2024/04/03 02:16:14;;;;;;;1.80;1.40;;;15.50;47.00;;;;;;5022518;28;20186;-56
2024/04/03 02:18:39;;;;;;;4.10;2.53;;;15.40;47.80;;;;;;5021719;28;20181;-58
2024/04/03 02:21:05;;;;;;;4.20;1.70;;;15.40;47.80;;;;;;5021115;28;20599;-58
2024/04/03 02:23:31;;;;;;;2.00;1.70;;;15.40;48.00;;;;;;5022282;28;20177;-57
2024/04/03 02:25:57;;;;;;;1.93;1.67;;;15.50;47.80;;;;;;5018756;28;20232;-57
2024/04/03 02:28:22;;;;;;;1.87;1.27;;;15.50;47.90;;;;;;5019765;28;20467;-58
2024/04/03 02:30:48;;;;;;;3.80;1.67;;;15.40;47.90;;;;;;5019330;28;20178;-58
2024/04/03 02:33:14;;;;;;;1.90;1.53;;;15.40;48.00;;;;;;5024265;28;20173;-56
2024/04/03 02:35:39;;;;;;;2.53;2.13;;;15.30;48.00;;;;;;5016189;28;20190;-58
2024/04/03 02:38:05;;;;;;;4.77;1.60;;;15.40;48.10;;;;;;5022234;28;20292;-57
2024/04/03 02:40:30;;;;;;;2.03;1.60;;;15.40;47.70;;;;;;5016306;28;20243;-59
2024/04/03 02:42:56;;;;;;;5.43;1.70;;;15.40;47.70;;;;;;5020494;28;20676;-58
2024/04/03 02:45:21;;;;;;;2.20;1.37;;;15.40;47.90;;;;;;5023141;28;20212;-58
2024/04/03 02:47:47;;;;;;;3.37;1.60;;;15.40;47.70;;;;;;5017185;28;20225;-59
2024/04/03 02:50:12;;;;;;;7.53;1.50;;;15.40;47.70;;;;;;5021891;28;20657;-57
2024/04/03 02:52:38;;;;;;;3.40;2.07;;;15.40;47.40;;;;;;5022471;28;20185;-56
2024/04/03 02:55:04;;;;;;;1.73;1.53;;;15.40;47.90;;;;;;5021705;28;20173;-58
2024/04/03 02:57:32;;;;;;;1.97;1.70;;;15.40;47.90;;;;;;5021729;28;20676;-58
2024/04/03 02:59:58;;;;;;;2.27;1.50;;;15.40;47.80;;;;;;5018282;28;21333;-54
2024/04/03 03:02:24;;;;;;;4.70;2.00;;;15.40;47.80;;;;;;5020868;28;20471;-58
2024/04/03 03:04:49;;;;;;;4.80;1.50;;;15.50;47.70;;;;;;5017147;28;20213;-58
2024/04/03 03:07:15;;;;;;;2.40;1.40;;;15.40;47.80;;;;;;5022789;28;20200;-56
2024/04/03 03:09:40;;;;;;;2.50;1.67;;;15.20;48.50;;;;;;5016378;28;20560;-55
2024/04/03 03:12:06;;;;;;;3.03;1.60;;;15.20;48.80;;;;;;5022305;28;20183;-58
2024/04/03 03:14:32;;;;;;;2.83;1.67;;;15.20;48.80;;;;;;5022088;28;20272;-57
2024/04/03 03:16:57;;;;;;;2.97;1.40;;;15.00;48.50;;;;;;5022092;28;20232;-59
2024/04/03 03:19:26;;;;;;;1.90;1.23;;;14.80;49.30;;;;;;5025209;28;20213;-57
2024/04/03 03:21:52;;;;;;;1.97;1.40;;;14.90;49.20;;;;;;5020375;28;20265;-58
2024/04/03 03:24:19;;;;;;;1.53;1.23;;;14.80;49.00;;;;;;5025549;28;20519;-57
2024/04/03 03:26:45;;;;;;;1.30;1.20;;;14.80;48.90;;;;;;5026051;28;20205;-58
2024/04/03 03:29:10;;;;;;;3.70;1.50;;;14.70;49.40;;;;;;5023752;28;20422;-56
2024/04/03 03:31:36;;;;;;;3.83;1.63;;;14.80;49.20;;;;;;5025668;28;20186;-57
2024/04/03 03:34:01;;;;;;;4.90;1.60;;;14.90;49.10;;;;;;5023823;28;20177;-56
2024/04/03 03:36:27;;;;;;;2.00;1.40;;;15.00;48.60;;;;;;5022662;28;20208;-55
2024/04/03 03:38:52;;;;;;;1.77;1.40;;;14.80;49.40;;;;;;5022517;28;20595;-54
2024/04/03 03:41:18;;;;;;;2.10;1.33;;;14.80;49.50;;;;;;5027520;28;20854;-57
2024/04/03 03:43:44;;;;;;;2.10;1.70;;;14.90;49.40;;;;;;5021633;28;20277;-56
2024/04/03 03:46:09;;;;;;;1.67;1.30;;;14.90;49.10;;;;;;5026047;28;20193;-54
2024/04/03 03:54:03;;;;;;;2.80;1.40;;;15.00;48.80;;;;;;5013281;28;20419;-57
2024/04/03 03:56:29;;;;;;;2.40;1.30;;;14.90;49.10;;;;;;5022722;28;21019;-57
2024/04/03 03:58:54;;;;;;;5.40;1.60;;;15.00;49.10;;;;;;5022785;28;20190;-56
2024/04/03 04:01:20;;;;;;;1.83;1.63;;;15.10;49.00;;;;;;5022339;28;20212;-58
2024/04/03 04:03:45;;;;;;;2.63;1.83;;;15.00;49.10;;;;;;5021435;28;20678;-56
2024/04/03 04:06:11;;;;;;;5.47;1.73;;;14.60;48.90;;;;;;5028159;28;20197;-54
2024/04/03 04:08:37;;;;;;;1.33;1.10;;;14.60;49.40;;;;;;5019264;28;20196;-57
2024/04/03 04:11:03;;;;;;;1.50;1.30;;;14.70;49.40;;;;;;5027499;28;20182;-58
2024/04/03 04:13:29;;;;;;;1.40;1.20;;;14.60;49.50;;;;;;5019200;28;20186;-57
2024/04/03 04:15:59;;;;;;;1.60;1.20;;;14.70;49.70;;;;;;5025762;28;21109;-58
2024/04/03 04:18:25;;;;;;;4.93;1.90;;;14.60;49.80;;;;;;5024136;28;20205;-56
2024/04/03 04:20:55;;;;;;;2.13;1.37;;;14.80;49.50;;;;;;5021862;28;20476;-58
2024/04/03 04:23:24;;;;;;;4.03;1.77;;;14.90;49.30;;;;;;5023766;28;20204;-59
2024/04/03 04:26:04;;;;;;;3.33;1.50;;;14.90;48.90;;;;;;5022373;28;20455;-55
2024/04/03 04:28:33;;;;;;;5.17;1.10;;;15.00;48.90;;;;;;5022188;28;20444;-56
2024/04/03 04:31:01;;;;;;;2.57;1.50;;;15.00;49.40;;;;;;5022507;28;20887;-57
2024/04/03 04:33:34;;;;;;;3.10;1.73;;;14.90;48.90;;;;;;5025535;28;20507;-55
2024/04/03 04:36:00;;;;;;;2.10;1.80;;;15.00;48.80;;;;;;5019035;28;20430;-56
2024/04/03 04:38:27;;;;;;;1.40;1.27;;;15.00;49.10;;;;;;5024254;28;20459;-58
2024/04/03 04:40:57;;;;;;;1.97;1.60;;;14.90;48.90;;;;;;5016467;28;20259;-54
2024/04/03 04:43:25;;;;;;;2.20;1.80;;;14.70;49.50;;;;;;5023313;28;20471;-57
2024/04/03 04:45:59;;;;;;;2.50;1.53;;;14.80;49.50;;;;;;5021766;28;20484;-57
2024/04/03 04:48:25;;;;;;;2.40;1.63;;;14.80;49.50;;;;;;5021649;28;20464;-58
2024/04/03 04:50:56;;;;;;;4.30;1.60;;;14.80;49.50;;;;;;5019907;28;20835;-58
2024/04/03 04:53:21;;;;;;;7.93;1.70;;;14.90;49.50;;;;;;5020759;28;20408;-57
2024/04/03 04:56:00;;;;;;;1.90;1.57;;;15.00;49.10;;;;;;5020406;28;20474;-58
2024/04/03 04:58:25;;;;;;;6.87;2.00;;;15.00;49.10;;;;;;5024466;28;20201;-54
2024/04/03 05:01:01;;;;;;;2.80;1.97;;;15.00;48.90;;;;;;5017433;28;20475;-58
2024/04/03 05:03:27;;;;;;;2.30;1.33;;;15.10;48.70;;;;;;5023229;28;20550;-57
2024/04/03 05:05:53;;;;;;;4.23;1.70;;;15.20;48.60;;;;;;5018495;28;20441;-57
2024/04/03 05:08:18;;;;;;;2.67;1.70;;;15.30;48.40;;;;;;5022158;28;20214;-58
2024/04/03 05:10:50;;;;;;;4.90;1.60;;;15.30;48.30;;;;;;5023247;28;20238;-54
2024/04/03 05:13:17;;;;;;;2.37;1.63;;;15.40;48.20;;;;;;5021351;28;20182;-58
2024/04/03 05:15:43;;;;;;;1.53;1.43;;;15.20;47.70;;;;;;5023281;28;20408;-56
2024/04/03 05:18:08;;;;;;;2.13;2.03;;;14.90;48.90;;;;;;5019567;28;20477;-56
2024/04/03 05:20:34;;;;;;;3.20;1.63;;;15.00;48.90;;;;;;5021525;28;20545;-57
2024/04/03 05:22:59;;;;;;;2.07;1.50;;;15.10;48.70;;;;;;5022176;28;20208;-57
2024/04/03 05:25:25;;;;;;;2.33;1.53;;;15.20;48.50;;;;;;5024269;28;20188;-57
2024/04/03 05:27:50;;;;;;;1.70;1.60;;;15.30;48.10;;;;;;5018235;28;20205;-58
2024/04/03 05:30:16;;;;;;;2.80;1.40;;;15.40;47.90;;;;;;5022056;28;20555;-58
2024/04/03 05:32:42;;;;;;;4.47;1.60;;;15.40;47.90;;;;;;5022635;28;20186;-58
2024/04/03 05:35:07;;;;;;;2.80;2.13;;;15.40;48.00;;;;;;5021353;28;20192;-57
2024/04/03 05:37:33;;;;;;;3.03;1.80;;;15.40;48.20;;;;;;5020332;28;20202;-58
2024/04/03 05:39:59;;;;;;;2.33;1.83;;;15.30;48.80;;;;;;5017773;28;20223;-57
2024/04/03 05:42:24;;;;;;;2.60;1.70;;;15.40;48.70;;;;;;5021764;28;20174;-60
2024/04/03 05:44:50;;;;;;;4.60;2.13;;;15.30;48.70;;;;;;5023883;28;20943;-58
2024/04/03 05:47:16;;;;;;;2.30;2.07;;;15.30;49.00;;;;;;5019542;28;20225;-57
2024/04/03 05:49:41;;;;;;;1.63;1.40;;;15.40;48.60;;;;;;5021787;28;20191;-55
2024/04/03 05:52:07;;;;;;;2.47;1.50;;;15.40;48.10;;;;;;5022968;28;20189;-60
2024/04/03 05:54:33;;;;;;;2.03;1.50;;;15.40;48.20;;;;;;5023256;28;20207;-60
2024/04/03 05:56:58;;;;;;;1.90;1.40;;;15.20;47.50;;;;;;5020486;28;20205;-62
2024/04/03 05:59:24;;;;;;;3.63;2.13;;;15.10;47.80;;;;;;5022487;28;20270;-56
2024/04/03 06:01:49;;;;;;;2.13;1.50;;;15.00;47.80;;;;;;5018564;28;20192;-57
2024/04/03 06:04:16;;;;;;;3.30;1.63;;;14.90;47.70;;;;;;5022396;28;20173;-60
2024/04/03 06:06:41;;;;;;;2.30;1.87;;;14.90;47.80;;;;;;5016491;28;20677;-58
2024/04/03 06:09:07;;;;;;;2.10;1.90;;;15.00;47.60;;;;;;5020172;28;20446;-58
2024/04/03 06:11:33;;;;;;;1.37;1.27;;;15.20;47.40;;;;;;5022398;28;20502;-60
2024/04/03 06:13:58;;;;;;;1.70;1.40;;;15.10;47.10;;;;;;5019225;28;20300;-57
2024/04/03 06:16:24;;;;;;;1.80;1.47;;;15.20;47.70;;;;;;5021794;28;20178;-57
2024/04/03 06:18:49;;;;;;;3.30;1.90;;;15.40;47.90;;;;;;5022442;28;20190;-61
2024/04/03 06:21:18;;;;;;;1.90;1.33;;;15.60;47.50;;;;;;5021258;28;20233;-60
2024/04/03 06:23:43;;;;;;;1.73;1.30;;;15.70;47.50;;;;;;5022209;28;20188;-58
2024/04/03 06:26:09;;;;;;;1.70;1.60;;;15.80;47.30;;;;;;5020375;28;20429;-63
2024/04/03 06:28:34;;;;;;;8.20;2.20;;;15.90;47.10;;;;;;5020738;28;20185;-62
2024/04/03 06:31:00;;;;;;;2.60;1.40;;;15.80;47.30;;;;;;5020330;28;20178;-56
2024/04/03 06:33:25;;;;;;;2.90;1.37;;;15.80;48.90;;;;;;5023886;28;20173;-61
2024/04/03 06:35:51;;;;;;;2.20;1.33;;;15.50;50.80;;;;;;5014025;28;20189;-59
2024/04/03 06:38:17;;;;;;;4.07;1.80;;;15.60;51.40;;;;;;5021746;28;20828;-60
2024/04/03 06:40:42;;;;;;;3.43;1.50;;;15.60;51.70;;;;;;5015605;28;20209;-59
2024/04/03 06:43:08;;;;;;;1.73;1.00;;;15.70;52.20;;;;;;5021799;28;20196;-57
2024/04/03 06:45:34;;;;;;;1.50;1.20;;;15.80;52.10;;;;;;5021830;28;20750;-61
2024/04/03 06:47:59;;;;;;;2.10;1.10;;;15.90;52.40;;;;;;5019379;28;20267;-60
2024/04/03 06:50:25;;;;;;;2.30;1.23;;;16.00;52.40;;;;;;5021641;28;20252;-58
2024/04/03 06:52:50;;;;;;;1.73;1.30;;;16.10;52.60;;;;;;5021768;28;20189;-59
2024/04/03 06:55:16;;;;;;;1.50;1.10;;;16.20;52.70;;;;;;5025428;28;20200;-56
2024/04/03 06:57:43;;;;;;;2.90;1.30;;;16.30;52.80;;;;;;5025815;28;20212;-60
2024/04/03 07:00:09;;;;;;;3.57;1.30;;;16.30;52.80;;;;;;5023770;28;20205;-62
2024/04/03 07:02:36;;;;;;;1.53;1.10;;;16.40;53.20;;;;;;5026119;28;20427;-60
2024/04/03 07:05:03;;;;;;;2.00;1.27;;;16.50;53.90;;;;;;5022541;28;20479;-62
2024/04/03 07:07:29;;;;;;;2.00;1.30;;;16.50;53.80;;;;;;5024213;28;20447;-61
2024/04/03 07:09:56;;;;;;;2.50;1.37;;;16.60;53.40;;;;;;5022370;28;20431;-59
2024/04/03 07:12:22;;;;;;;3.63;1.13;;;16.60;52.80;;;;;;5027085;28;20617;-60
2024/04/03 07:14:48;;;;;;;2.50;1.30;;;16.70;52.80;;;;;;5021289;28;20449;-63
2024/04/03 07:17:13;;;;;;;5.60;1.60;;;16.70;52.90;;;;;;5025348;28;20284;-61
2024/04/03 07:19:39;;;;;;;1.73;1.30;;;16.80;53.20;;;;;;5018664;28;20213;-63
2024/04/03 07:22:04;;;;;;;5.30;1.57;;;16.80;53.30;;;;;;5024623;28;20181;-59
2024/04/03 07:24:30;;;;;;;2.30;1.50;;;16.80;53.20;;;;;;5025173;28;20197;-61
2024/04/03 07:26:56;;;;;;;3.77;1.50;;;16.80;53.20;;;;;;5021275;28;20283;-58
2024/04/03 07:29:24;;;;;;;2.80;1.80;;;16.80;54.10;;;;;;5023593;28;20177;-60
2024/04/03 07:31:49;;;;;;;3.03;1.90;;;16.80;53.50;;;;;;5026507;28;20474;-62
2024/04/03 07:34:15;;;;;;;1.30;1.20;;;16.60;53.30;;;;;;5022941;28;20837;-62
2024/04/03 07:36:43;;;;;;;2.30;1.70;;;16.70;53.00;;;;;;5022683;28;20689;-59
2024/04/03 07:39:09;;;;;;;1.90;1.33;;;16.80;52.70;;;;;;5020100;28;20598;-62
2024/04/03 07:41:35;;;;;;;1.77;1.27;;;16.90;52.30;;;;;;5024143;28;20462;-56
2024/04/03 07:44:00;;;;;;;2.90;1.50;;;16.90;51.60;;;;;;5023327;28;20412;-61
2024/04/03 07:46:27;;;;;;;1.33;1.23;;;17.00;50.40;;;;;;5026504;28;20586;-65
2024/04/03 07:48:52;;;;;;;2.30;1.50;;;17.10;50.00;;;;;;5020128;28;20305;-61
2024/04/03 07:51:18;;;;;;;2.57;1.50;;;17.10;50.00;;;;;;5025688;28;20878;-61
2024/04/03 07:53:44;;;;;;;1.67;1.20;;;17.20;49.80;;;;;;5018829;28;20192;-60
2024/04/03 07:56:11;;;;;;;1.40;1.30;;;17.30;49.90;;;;;;5024298;28;20189;-60
2024/04/03 07:58:37;;;;;;;2.00;1.57;;;17.30;50.00;;;;;;5023517;28;20178;-61
2024/04/03 08:01:03;;;;;;;4.23;1.67;;;17.40;49.90;;;;;;5022285;28;20817;-60
2024/04/03 08:03:29;;;;;;;2.33;1.30;;;17.50;49.90;;;;;;5023432;28;20182;-60
2024/04/03 08:05:55;;;;;;;2.93;1.80;;;17.60;49.40;;;;;;5019801;28;20657;-61
2024/04/03 08:08:23;;;;;;;1.70;1.33;;;17.70;48.80;;;;;;5022369;28;20453;-61
2024/04/03 08:10:49;;;;;;;2.57;1.40;;;17.80;48.50;;;;;;5024718;28;20417;-57
2024/04/03 08:13:15;;;;;;;2.30;1.27;;;17.90;48.40;;;;;;5021962;28;20471;-62
2024/04/03 08:15:40;;;;;;;3.60;1.50;;;17.80;48.60;;;;;;5023588;28;20177;-61
2024/04/03 08:18:06;;;;;;;1.63;1.33;;;17.70;48.30;;;;;;5020488;28;20201;-58
2024/04/03 08:20:31;;;;;;;3.70;1.53;;;17.70;48.70;;;;;;5021851;28;20819;-61
2024/04/03 08:22:57;;;;;;;2.87;1.93;;;17.80;49.50;;;;;;5022210;28;20257;-62
2024/04/03 08:25:24;;;;;;;2.50;1.60;;;17.80;48.40;;;;;;5023935;28;20637;-66
2024/04/03 08:27:52;;;;;;;3.30;1.50;;;17.90;48.90;;;;;;5012585;28;20213;-61
2024/04/03 08:30:21;;;;;;;2.50;1.60;;;17.90;48.40;;;;;;5016604;28;20522;-62
2024/04/03 08:32:47;;;;;;;3.07;1.77;;;17.70;48.40;;;;;;5018174;28;20747;-61
2024/04/03 08:35:12;;;;;;;3.37;1.50;;;17.60;48.00;;;;;;5020942;28;20436;-62
2024/04/03 08:37:38;;;;;;;1.40;1.30;;;17.80;48.40;;;;;;5020026;28;20202;-58
2024/04/03 08:40:04;;;;;;;2.23;1.80;;;17.90;48.40;;;;;;5026239;28;20579;-61
2024/04/03 08:42:30;;;;;;;2.50;1.90;;;17.80;48.00;;;;;;5019995;28;20182;-60
2024/04/03 08:44:57;;;;;;;2.00;1.60;;;17.50;48.30;;;;;;5025351;28;20444;-61
2024/04/03 08:47:24;;;;;;;1.47;1.30;;;17.50;49.50;;;;;;5018091;28;20217;-62
2024/04/03 08:49:50;;;;;;;1.30;1.20;;;17.70;49.50;;;;;;5023035;28;21144;-59
2024/04/03 08:52:18;;;;;;;2.60;1.33;;;17.80;49.80;;;;;;5023242;28;20506;-57
2024/04/03 08:54:44;;;;;;;1.40;1.30;;;17.80;49.70;;;;;;5022544;28;20209;-59
2024/04/03 08:57:10;;;;;;;4.90;1.80;;;18.00;49.60;;;;;;5020910;28;20522;-58
2024/04/03 08:59:38;;;;;;;3.50;2.00;;;17.70;49.10;;;;;;5021453;28;20546;-59
2024/04/03 09:02:04;;;;;;;2.37;1.63;;;17.50;49.70;;;;;;5025318;28;20184;-59
2024/04/03 09:04:31;;;;;;;3.27;1.90;;;17.50;49.80;;;;;;5016326;28;20480;-64
2024/04/03 09:06:56;;;;;;;3.80;1.50;;;17.70;49.50;;;;;;4999640;28;20485;-63
2024/04/03 09:09:24;;;;;;;4.33;1.60;;;17.70;49.80;;;;;;5001643;28;20437;-61
2024/04/03 09:11:51;;;;;;;3.40;1.47;;;17.90;49.00;;;;;;5011120;28;20220;-62
2024/04/03 09:14:27;;;;;;;1.97;1.77;;;18.20;48.60;;;;;;5009083;28;20437;-59
2024/04/03 09:17:03;;;;;;;2.40;1.37;;;18.30;47.80;;;;;;5010412;28;20991;-58
2024/04/03 09:19:32;;;;;;;4.10;1.73;;;18.20;48.10;;;;;;5007369;28;21115;-60
2024/04/03 09:21:59;;;;;;;1.53;1.17;;;18.00;47.80;;;;;;5008211;28;20445;-62
2024/04/03 09:24:25;;;;;;;2.67;1.70;;;18.20;47.50;;;;;;5008582;28;20523;-59
2024/04/03 09:26:51;;;;;;;1.70;1.10;;;18.40;47.00;;;;;;5011856;28;20469;-59
2024/04/03 09:29:18;;;;;;;2.43;1.10;;;18.50;47.20;;;;;;5009437;28;20432;-59
2024/04/03 09:31:44;;;;;;;1.20;1.07;;;18.60;47.00;;;;;;5010766;28;20457;-63
2024/04/03 09:34:11;;;;;;;1.30;1.20;;;18.60;46.30;;;;;;5005329;28;20476;-61
2024/04/03 09:36:36;;;;;;;4.13;1.23;;;18.50;46.20;;;;;;5016214;28;20503;-63
2024/04/03 09:39:03;;;;;;;2.30;1.37;;;18.80;46.50;;;;;;5011744;28;20868;-58
2024/04/03 09:41:30;;;;;;;4.03;1.53;;;18.80;45.70;;;;;;5004826;28;20492;-61
2024/04/03 09:44:00;;;;;;;5.53;1.90;;;18.60;44.90;;;;;;5012057;28;20949;-59
2024/04/03 09:46:35;;;;;;;1.73;1.30;;;18.20;45.50;;;;;;5007170;28;20469;-62
2024/04/03 09:49:03;;;;;;;1.00;0.90;;;18.40;45.70;;;;;;5004397;28;20464;-58
2024/04/03 09:51:29;;;;;;;3.60;1.00;;;18.50;44.10;;;;;;5005144;28;21026;-59
2024/04/03 09:53:55;;;;;;;1.03;0.93;;;18.80;44.60;;;;;;5015513;28;20449;-57
2024/04/03 09:56:21;;;;;;;0.70;0.70;;;18.90;43.60;;;;;;5016881;28;20552;-58
2024/04/03 09:58:50;;;;;;;0.80;0.80;;;18.80;42.70;;;;;;5014136;28;20221;-65
2024/04/03 10:01:17;;;;;;;1.73;1.00;;;19.00;42.00;;;;;;5008048;28;20209;-61
2024/04/03 10:03:43;;;;;;;1.77;1.00;;;19.10;41.20;;;;;;5013761;28;20440;-63
2024/04/03 10:06:13;;;;;;;2.20;0.90;;;19.30;41.00;;;;;;5010682;28;20432;-64
2024/04/03 10:08:42;;;;;;;1.97;0.90;;;19.60;41.30;;;;;;5015500;28;20539;-63
2024/04/03 10:11:13;;;;;;;1.53;1.00;;;19.50;40.60;;;;;;5013590;28;20428;-63
2024/04/03 10:13:40;;;;;;;1.13;0.90;;;19.40;41.40;;;;;;5014970;28;20441;-60
2024/04/03 10:16:07;;;;;;;2.47;1.00;;;19.10;42.00;;;;;;5014461;28;20440;-58
2024/04/03 10:18:38;;;;;;;2.13;1.00;;;19.30;41.60;;;;;;5014461;28;20528;-62
2024/04/03 10:21:07;;;;;;;1.03;0.93;;;19.60;41.40;;;;;;5008354;28;20475;-59
2024/04/03 10:23:40;;;;;;;2.97;1.00;;;19.80;40.20;;;;;;5017722;28;20437;-65
2024/04/03 10:26:07;;;;;;;1.90;0.97;;;20.10;39.80;;;;;;5008671;28;20448;-58
2024/04/03 10:28:33;;;;;;;0.93;0.93;;;19.90;39.40;;;;;;5016639;28;22162;-62
2024/04/03 10:30:59;;;;;;;2.60;1.10;;;19.50;39.90;;;;;;5019068;28;20479;-62
2024/04/03 10:33:27;;;;;;;3.00;1.13;;;19.80;40.50;;;;;;5012913;28;20194;-64
2024/04/03 10:35:52;;;;;;;1.37;1.27;;;20.10;39.30;;;;;;5017639;28;20208;-67
2024/04/03 10:38:18;;;;;;;3.17;1.00;;;20.40;40.10;;;;;;5010333;28;20444;-59
2024/04/03 10:40:47;;;;;;;1.43;0.90;;;20.60;39.30;;;;;;5013372;28;20248;-59
2024/04/03 10:43:13;;;;;;;1.33;0.90;;;20.60;39.10;;;;;;5026571;28;20935;-63
2024/04/03 10:45:38;;;;;;;1.33;0.90;;;20.60;40.40;;;;;;5022450;28;20841;-64
2024/04/03 10:48:09;;;;;;;3.07;1.20;;;20.50;40.60;;;;;;5025223;28;20558;-59
2024/04/03 10:50:38;;;;;;;1.97;1.10;;;20.50;40.80;;;;;;5020375;28;20263;-63
2024/04/03 10:53:05;;;;;;;1.33;1.20;;;20.50;40.80;;;;;;5029787;28;20509;-58
2024/04/03 10:55:31;;;;;;;1.43;1.20;;;20.20;40.70;;;;;;5017270;28;20502;-59
2024/04/03 10:58:08;;;;;;;3.03;1.13;;;19.70;41.80;;;;;;5026605;28;20485;-64
2024/04/03 11:00:39;;;;;;;1.00;0.80;;;19.40;43.60;;;;;;5018842;28;20529;-61
2024/04/03 11:03:06;;;;;;;0.90;0.80;;;19.10;44.40;;;;;;5026772;28;20859;-62
2024/04/03 11:05:33;;;;;;;0.70;0.70;;;18.80;45.50;;;;;;5024610;28;21298;-62
2024/04/03 11:08:00;;;;;;;0.70;0.70;;;18.60;46.40;;;;;;5025423;28;20455;-63
2024/04/03 11:10:26;;;;;;;1.73;0.90;;;18.00;46.70;;;;;;5027164;28;20435;-58
2024/04/03 11:13:10;;;;;;;2.10;0.97;;;17.90;47.40;;;;;;5017324;28;20447;-59
2024/04/03 11:15:37;;;;;;;1.17;0.60;;;17.70;47.60;;;;;;5019812;28;20539;-62
2024/04/03 11:18:03;;;;;;;0.77;0.77;;;17.30;47.90;;;;;;5025474;28;20538;-59
2024/04/03 11:20:34;;;;;;;2.70;0.90;;;17.20;49.20;;;;;;5020012;28;20488;-63
2024/04/03 11:23:00;;;;;;;1.87;0.90;;;16.90;49.30;;;;;;5020401;28;21062;-61
2024/04/03 11:25:26;;;;;;;1.40;0.80;;;16.90;50.00;;;;;;5023843;28;20444;-59
2024/04/03 11:27:52;;;;;;;2.13;1.10;;;16.90;50.10;;;;;;5019182;28;20448;-62
2024/04/03 11:30:18;;;;;;;1.53;1.00;;;17.00;49.90;;;;;;5016120;28;20185;-64
2024/04/03 11:32:44;;;;;;;0.60;0.60;;;16.80;49.50;;;;;;5014090;28;20475;-59
2024/04/03 11:35:10;;;;;;;0.70;0.70;;;16.50;49.70;;;;;;5019502;28;20181;-61
2024/04/03 11:37:35;;;;;;;0.97;0.80;;;16.40;50.50;;;;;;5017618;28;20453;-62
2024/04/03 11:40:06;;;;;;;1.00;0.80;;;16.60;50.10;;;;;;5019455;28;20206;-62
2024/04/03 11:42:33;;;;;;;1.63;0.70;;;16.60;49.30;;;;;;5020023;28;20218;-57
2024/04/03 11:44:59;;;;;;;0.80;0.80;;;16.70;49.10;;;;;;5026763;28;20432;-56
2024/04/03 11:47:25;;;;;;;0.70;0.70;;;17.00;49.30;;;;;;5017228;28;20840;-58
2024/04/03 11:49:50;;;;;;;1.03;0.70;;;17.00;49.30;;;;;;5020421;28;20186;-58
2024/04/03 11:52:16;;;;;;;3.33;0.90;;;17.00;49.10;;;;;;5013456;28;20654;-60
2024/04/03 11:54:42;;;;;;;0.60;0.50;;;17.10;49.00;;;;;;5014927;28;20186;-61
2024/04/03 11:57:08;;;;;;;1.33;0.80;;;17.00;48.90;;;;;;5016258;28;21018;-59
2024/04/03 11:59:34;;;;;;;0.83;0.80;;;17.00;49.20;;;;;;5018069;28;20417;-60
2024/04/03 12:02:03;;;;;;;0.63;0.50;;;17.00;49.80;;;;;;5012721;28;20198;-59
2024/04/03 12:04:29;;;;;;;2.30;1.10;;;16.80;50.20;;;;;;5018300;28;20412;-58
2024/04/03 12:06:55;;;;;;;0.70;0.70;;;16.60;49.90;;;;;;5010637;28;20477;-55
2024/04/03 12:09:20;;;;;;;1.07;0.70;;;16.50;50.40;;;;;;5019734;28;20188;-57
2024/04/03 12:11:46;;;;;;;0.70;0.70;;;16.60;50.90;;;;;;5014384;28;20186;-61
2024/04/03 12:14:11;;;;;;;1.00;0.90;;;16.50;50.50;;;;;;5020587;28;20193;-61
2024/04/03 12:16:37;;;;;;;0.60;0.60;;;16.50;50.80;;;;;;5014793;28;20237;-58
2024/04/03 12:21:47;;;;;;;0.80;0.60;;;16.30;51.40;;;;;;5012032;28;20205;-59
2024/04/03 12:24:14;;;;;;;0.60;0.60;;;16.30;51.80;;;;;;5016487;28;20914;-65
2024/04/03 12:26:41;;;;;;;0.80;0.80;;;15.90;52.10;;;;;;5016474;28;20907;-64
2024/04/03 12:29:07;;;;;;;0.80;0.80;;;15.80;53.00;;;;;;5016923;28;20205;-58
2024/04/03 12:31:33;;;;;;;0.90;0.70;;;15.90;53.50;;;;;;5010287;28;20531;-67
2024/04/03 12:33:59;;;;;;;1.13;0.90;;;16.10;53.50;;;;;;5012589;28;20197;-58
2024/04/03 12:36:25;;;;;;;0.90;0.70;;;16.40;53.70;;;;;;5012997;28;20442;-62
2024/04/03 12:38:53;;;;;;;0.60;0.53;;;16.50;53.50;;;;;;5012467;28;20500;-61
2024/04/03 12:41:21;;;;;;;0.70;0.60;;;16.50;53.30;;;;;;4998789;28;21065;-62
2024/04/03 12:43:46;;;;;;;0.70;0.70;;;16.30;53.10;;;;;;5006067;28;20453;-60
2024/04/03 12:46:13;;;;;;;0.70;0.70;;;16.50;54.00;;;;;;5000829;28;20971;-61
2024/04/03 12:48:39;;;;;;;1.20;1.03;;;16.30;54.00;;;;;;5004745;28;20217;-63
2024/04/03 12:51:05;;;;;;;1.00;0.83;;;16.30;54.90;;;;;;5001737;28;20440;-58
2024/04/03 12:53:31;;;;;;;1.20;0.60;;;16.10;56.00;;;;;;5010083;28;20740;-61